Time;durP1;ratioP1;P1;durP2;ratioP2;P2;SDS_P1;SDS_P2;PMS_P1;PMS_P2;Temp;Humidity;BMP_temperature;BMP_pressure;BME280_temperature;BME280_humidity;BME280_pressure;Samples;Min_cycle;Max_cycle;Signal;HPM_P1;HPM_P2
2023/01/07 00:01:14;;;;;;;7.90;4.78;;;;;;;-142.75;100.00;77099.84;4983562;28;20141;-68
2023/01/07 00:03:40;;;;;;;6.90;3.88;;;;;;;-142.75;100.00;77090.00;5001473;28;20653;-68
2023/01/07 00:06:07;;;;;;;;;;;;;;;-142.75;100.00;77090.00;5001810;28;20028;-67
2023/01/07 00:08:37;;;;;;;9.27;3.58;;;;;;;-142.75;100.00;77099.84;4983360;28;19946;-67
2023/01/07 00:11:05;;;;;;;8.35;3.78;;;;;;;-142.75;100.00;77105.75;4983168;28;20653;-67
2023/01/07 00:13:31;;;;;;;6.82;3.63;;;;;;;-142.75;100.00;77125.44;4983214;28;20055;-65
2023/01/07 00:16:01;;;;;;;6.85;3.65;;;;;;;-142.75;100.00;77113.63;5009747;22;20214;-69
2023/01/07 00:18:27;;;;;;;12.70;3.78;;;;;;;-142.75;100.00;77113.63;4980365;28;20137;-66
2023/01/07 00:20:57;;;;;;;6.63;3.72;;;;;;;-142.75;100.00;77113.63;4980978;28;20332;-66
2023/01/07 00:23:23;;;;;;;6.72;3.47;;;;;;;-142.75;100.00;77135.28;4983420;28;20906;-65
2023/01/07 00:25:50;;;;;;;4.75;2.90;;;;;;;-142.75;100.00;77127.41;4967133;28;20025;-66
2023/01/07 00:28:16;;;;;;;6.15;3.05;;;;;;;-142.75;100.00;77123.47;4990904;28;20604;-66
2023/01/07 00:30:41;;;;;;;6.50;3.15;;;;;;;-142.75;100.00;77127.41;4969186;28;20025;-66
2023/01/07 00:33:10;;;;;;;8.13;3.13;;;;;;;-142.75;100.00;77137.25;4986059;28;20351;-66
2023/01/07 00:35:35;;;;;;;5.45;3.30;;;;;;;-142.75;100.00;77125.44;4967933;28;20052;-66
2023/01/07 00:38:02;;;;;;;7.53;3.30;;;;;;;-142.75;100.00;77121.50;4987730;28;20369;-66
2023/01/07 00:40:30;;;;;;;7.03;3.38;;;;;;;-142.75;100.00;77125.44;4986487;28;20017;-66
2023/01/07 00:43:04;;;;;;;5.60;3.05;;;;;;;-142.75;100.00;77133.31;4986913;28;20561;-66
2023/01/07 00:45:35;;;;;;;9.07;3.25;;;;;;;-142.75;100.00;77117.56;4985749;28;20024;-66
2023/01/07 00:48:03;;;;;;;8.93;3.13;;;;;;;-142.75;100.00;77113.63;4985549;28;20114;-66
2023/01/07 00:50:35;;;;;;;6.15;2.63;;;;;;;-142.75;100.00;77113.63;4985848;28;20694;-66
2023/01/07 00:53:00;;;;;;;7.03;3.30;;;;;;;-142.75;100.00;77117.56;4987290;28;20053;-66
2023/01/07 00:55:26;;;;;;;5.80;2.95;;;;;;;-142.75;100.00;77119.53;4984771;28;20340;-66
2023/01/07 00:57:52;;;;;;;5.18;2.90;;;;;;;-142.75;100.00;77097.88;4985629;28;20323;-65
2023/01/07 01:00:19;;;;;;;;;;;;;;;-142.75;100.00;77105.75;4987938;28;20090;-66
2023/01/07 01:02:45;;;;;;;5.88;2.83;;;;;;;-142.75;100.00;77113.63;4985578;28;20055;-65
2023/01/07 01:05:10;;;;;;;4.70;2.55;;;;;;;-142.75;100.00;77105.75;4985102;28;20136;-65
2023/01/07 01:07:36;;;;;;;4.80;2.72;;;;;;;-142.75;100.00;77093.94;4985044;28;20335;-66
2023/01/07 01:10:04;;;;;;;4.70;2.88;;;;;;;-142.75;100.00;77103.78;4966377;28;20331;-66
2023/01/07 01:12:29;;;;;;;6.40;3.30;;;;;;;-142.75;100.00;77097.88;4986470;28;20021;-66
2023/01/07 01:14:55;;;;;;;7.00;2.78;;;;;;;-142.75;100.00;77101.81;4986659;28;20312;-66
2023/01/07 01:17:21;;;;;;;6.63;3.17;;;;;;;-142.75;100.00;77084.09;4985461;28;20297;-66
2023/01/07 01:19:47;;;;;;;4.97;2.92;;;;;;;-142.75;100.00;77090.00;4986868;28;20055;-66
2023/01/07 01:22:12;;;;;;;8.82;3.15;;;;;;;-142.75;100.00;77082.13;4985086;28;20425;-66
2023/01/07 01:24:38;;;;;;;4.28;2.70;;;;;;;-142.75;100.00;77105.75;4986417;28;20331;-66
2023/01/07 01:27:03;;;;;;;5.70;3.40;;;;;;;-142.75;100.00;77082.13;4987014;28;20335;-66
2023/01/07 01:29:30;;;;;;;5.85;3.03;;;;;;;-142.75;100.00;77091.97;4985322;28;20363;-66
2023/01/07 01:31:55;;;;;;;7.05;3.10;;;;;;;-142.75;100.00;77082.13;4986421;28;20102;-66
2023/01/07 01:34:21;;;;;;;6.13;3.28;;;;;;;-142.75;100.00;77091.97;4965946;28;20428;-67
2023/01/07 01:36:47;;;;;;;5.57;3.17;;;;;;;-142.75;100.00;77103.78;4985715;28;20202;-66
2023/01/07 01:39:12;;;;;;;13.18;3.85;;;;;;;-142.75;100.00;77109.69;4984356;28;20326;-66
2023/01/07 01:41:38;;;;;;;5.32;3.60;;;;;;;-142.75;100.00;77097.88;4984900;28;20191;-66
2023/01/07 01:44:36;;;;;;;8.82;4.18;;;;;;;-142.75;100.00;77101.81;4985672;28;20344;-66
2023/01/07 01:47:13;;;;;;;12.10;4.18;;;;;;;-142.75;100.00;77086.06;4984798;28;20047;-66
2023/01/07 01:49:43;;;;;;;7.65;4.07;;;;;;;-142.75;100.00;77101.81;4983331;28;20132;-67
2023/01/07 01:52:12;;;;;;;7.13;4.13;;;;;;;-142.75;100.00;77082.13;4985761;28;20039;-65
2023/01/07 01:54:43;;;;;;;8.05;4.43;;;;;;;-142.75;100.00;77090.00;4986043;28;20555;-66
2023/01/07 01:57:09;;;;;;;12.57;4.93;;;;;;;-142.75;100.00;77107.72;4984063;28;20911;-66
2023/01/07 01:59:38;;;;;;;7.93;3.95;;;;;;;-142.75;100.00;77109.69;4965728;28;20029;-67
2023/01/07 02:02:05;;;;;;;9.73;4.63;;;;;;;-142.75;100.00;77105.75;4985052;28;20106;-65
2023/01/07 02:04:31;;;;;;;10.55;4.88;;;;;;;-142.75;100.00;77109.69;4985997;28;20039;-66
2023/01/07 02:07:08;;;;;;;8.98;4.50;;;;;;;-142.75;100.00;77121.50;4984149;28;20614;-66
2023/01/07 02:09:33;;;;;;;6.35;3.88;;;;;;;-142.75;100.00;77117.56;4979214;28;20663;-66
2023/01/07 02:12:14;;;;;;;7.57;4.13;;;;;;;-142.75;100.00;77103.78;4983839;28;20110;-66
2023/01/07 02:14:51;;;;;;;10.52;4.50;;;;;;;-142.75;100.00;77117.56;4985222;28;20028;-66
2023/01/07 02:17:16;;;;;;;6.03;4.18;;;;;;;-142.75;100.00;77129.38;4983186;28;20160;-66
2023/01/07 02:19:41;;;;;;;9.70;4.22;;;;;;;-142.75;100.00;77111.66;4983386;28;20437;-66
2023/01/07 02:22:25;;;;;;;6.43;3.45;;;;;;;-142.75;100.00;77127.41;4983372;28;20028;-66
2023/01/07 02:25:03;;;;;;;9.40;4.45;;;;;;;-142.75;100.00;77115.59;4983495;28;20033;-66
2023/01/07 02:27:51;;;;;;;7.93;3.70;;;;;;;-142.75;100.00;77125.44;4983705;28;20051;-66
2023/01/07 02:30:35;;;;;;;9.02;3.60;;;;;;;-142.75;100.00;77131.34;4945814;28;20081;-67
2023/01/07 02:33:20;;;;;;;10.13;4.63;;;;;;;-142.75;100.00;77131.34;4984492;28;20219;-66
2023/01/07 02:35:59;;;;;;;8.82;3.90;;;;;;;-142.75;100.00;77111.66;4965500;28;20612;-66
2023/01/07 02:39:04;;;;;;;9.38;3.60;;;;;;;-142.75;100.00;77121.50;4972599;28;20110;-66
2023/01/07 02:41:56;;;;;;;8.27;3.72;;;;;;;-142.75;100.00;77133.31;4944173;28;20049;-66
2023/01/07 02:44:29;;;;;;;11.18;3.83;;;;;;;-142.75;100.00;77129.38;4972589;28;20021;-66
2023/01/07 02:47:04;;;;;;;8.45;4.13;;;;;;;-142.75;100.00;77121.50;4982764;28;20818;-65
2023/01/07 02:49:29;;;;;;;11.40;4.15;;;;;;;-142.75;100.00;77127.41;4982887;28;20028;-66
2023/01/07 02:51:55;;;;;;;7.25;3.38;;;;;;;-142.75;100.00;77131.34;4983841;28;20426;-66
2023/01/07 02:54:25;;;;;;;6.60;3.63;;;;;;;-142.75;100.00;77111.66;4983649;28;20308;-65
2023/01/07 02:57:02;;;;;;;8.35;4.25;;;;;;;-142.75;100.00;77117.56;4982714;28;20036;-66
2023/01/07 02:59:50;;;;;;;7.38;3.45;;;;;;;-142.75;100.00;77119.53;4984813;28;20207;-66
2023/01/07 03:02:39;;;;;;;9.43;3.83;;;;;;;-142.75;100.00;77133.31;4968593;28;20047;-66
2023/01/07 03:05:43;;;;;;;6.10;3.45;;;;;;;-142.75;100.00;77133.31;4984816;28;20120;-67
2023/01/07 03:08:34;;;;;;;7.00;3.50;;;;;;;-142.75;100.00;77117.56;4964106;28;20612;-66
2023/01/07 03:11:03;;;;;;;9.55;4.03;;;;;;;-142.75;100.00;77129.38;4964371;28;20130;-66
2023/01/07 03:13:59;;;;;;;7.68;4.68;;;;;;;-142.75;100.00;77133.31;4982434;28;20029;-66
2023/01/07 03:16:32;;;;;;;9.73;4.18;;;;;;;-142.75;100.00;77147.09;4964080;28;20838;-66
2023/01/07 03:19:06;;;;;;;6.30;3.33;;;;;;;-142.75;100.00;77137.25;4982620;28;20021;-66
2023/01/07 03:21:33;;;;;;;9.70;4.05;;;;;;;-142.75;100.00;77141.19;4983685;28;20051;-66
2023/01/07 03:24:00;;;;;;;7.15;3.70;;;;;;;-142.75;100.00;77135.28;4964392;28;20024;-66
2023/01/07 03:26:32;;;;;;;5.47;3.35;;;;;;;-142.75;100.00;77135.28;4984385;28;20576;-66
2023/01/07 03:29:00;;;;;;;10.48;3.55;;;;;;;-142.75;100.00;77141.19;4984462;28;20021;-66
2023/01/07 03:31:28;;;;;;;8.90;3.47;;;;;;;-142.75;100.00;77123.47;4982512;28;20098;-66
2023/01/07 03:34:07;;;;;;;8.63;3.50;;;;;;;-142.75;100.00;77113.63;4983955;28;20025;-66
2023/01/07 03:36:40;;;;;;;7.65;3.22;;;;;;;-142.75;100.00;77129.38;4983373;28;20033;-65
2023/01/07 03:39:09;;;;;;;5.95;3.00;;;;;;;-142.75;100.00;77119.53;4982264;28;20048;-66
2023/01/07 03:44:21;;;;;;;5.73;3.23;;;;;;;-142.75;100.00;77125.44;4982004;28;20044;-66
2023/01/07 03:46:46;;;;;;;5.55;3.28;;;;;;;-142.75;100.00;77133.31;4982589;28;20234;-66
2023/01/07 03:49:12;;;;;;;8.65;3.95;;;;;;;-142.75;100.00;77129.38;4981513;28;20036;-66
2023/01/07 03:51:37;;;;;;;;;;;;;;;-142.75;100.00;77123.47;4984029;28;20039;-66
2023/01/07 03:54:03;;;;;;;11.32;3.80;;;;;;;-142.75;100.00;77133.31;4981942;28;20323;-66
2023/01/07 03:56:29;;;;;;;7.60;4.18;;;;;;;-142.75;100.00;77115.59;4983054;28;20526;-66
2023/01/07 03:58:54;;;;;;;9.43;4.43;;;;;;;-142.75;100.00;77117.56;4981998;28;20021;-66
2023/01/07 04:01:20;;;;;;;9.52;4.45;;;;;;;-142.75;100.00;77105.75;4981497;28;20342;-67
2023/01/07 04:03:45;;;;;;;9.45;4.40;;;;;;;-142.75;100.00;77093.94;4983293;28;20335;-66
2023/01/07 04:06:11;;;;;;;9.10;5.00;;;;;;;-142.75;100.00;77109.69;4981637;28;20319;-66
2023/01/07 04:08:36;;;;;;;9.10;4.90;;;;;;;-142.75;100.00;77113.63;4963262;28;20393;-66
2023/01/07 04:11:02;;;;;;;14.73;5.22;;;;;;;-142.75;100.00;77099.84;4983838;28;20405;-66
2023/01/07 04:13:27;;;;;;;9.25;4.78;;;;;;;-142.75;100.00;77099.84;4983948;28;20470;-66
2023/01/07 04:15:53;;;;;;;12.38;4.78;;;;;;;-142.75;100.00;77090.00;4983510;28;20450;-66
2023/01/07 04:18:19;;;;;;;8.90;4.90;;;;;;;-142.75;100.00;77097.88;4983131;28;20410;-66
2023/01/07 04:20:47;;;;;;;15.05;4.78;;;;;;;-142.75;100.00;77072.28;4983542;28;20323;-66
2023/01/07 04:23:15;;;;;;;9.68;4.95;;;;;;;-142.75;100.00;77086.06;4982752;28;20024;-66
2023/01/07 04:25:40;;;;;;;9.25;4.43;;;;;;;-142.75;100.00;77109.69;4981719;28;20051;-66
2023/01/07 04:28:06;;;;;;;8.25;4.45;;;;;;;-142.75;100.00;77078.19;4982334;28;20374;-66
2023/01/07 04:30:32;;;;;;;10.05;4.90;;;;;;;-142.75;100.00;77082.13;4963517;28;20340;-66
2023/01/07 04:32:58;;;;;;;10.70;4.78;;;;;;;-142.75;100.00;77086.06;4983860;28;20020;-63
2023/01/07 04:35:24;;;;;;;12.07;5.55;;;;;;;-142.75;100.00;77086.06;4981456;28;20532;-66
2023/01/07 04:37:49;;;;;;;;;;;;;;;-142.75;100.00;77078.19;4981789;28;20516;-66
2023/01/07 04:40:15;;;;;;;11.95;4.90;;;;;;;-142.75;100.00;77084.09;4981519;28;20253;-66
2023/01/07 04:42:40;;;;;;;10.10;5.30;;;;;;;-142.75;100.00;77103.78;4981391;28;20358;-66
2023/01/07 04:45:06;;;;;;;9.27;4.80;;;;;;;-142.75;100.00;77086.06;4981961;28;20320;-65
2023/01/07 04:47:32;;;;;;;16.10;5.85;;;;;;;-142.75;100.00;77093.94;4981709;28;20097;-66
2023/01/07 04:49:57;;;;;;;12.07;5.22;;;;;;;-142.75;100.00;77088.03;4981605;28;20378;-66
2023/01/07 04:52:23;;;;;;;14.07;5.75;;;;;;;-142.75;100.00;77086.06;4982437;28;20420;-65
2023/01/07 04:54:49;;;;;;;10.48;5.68;;;;;;;-142.75;100.00;77090.00;4962985;28;20533;-65
2023/01/07 04:57:14;;;;;;;11.85;5.47;;;;;;;-142.75;100.00;77091.97;4982633;28;20295;-66
2023/01/07 04:59:40;;;;;;;16.98;6.50;;;;;;;-142.75;100.00;77090.00;4983009;28;20311;-66
2023/01/07 05:02:05;;;;;;;10.38;5.50;;;;;;;-142.75;100.00;77086.06;4983716;28;20323;-65
2023/01/07 05:04:30;;;;;;;10.65;5.70;;;;;;;-142.75;100.00;77072.28;4981901;28;20346;-66
2023/01/07 05:06:56;;;;;;;11.88;5.70;;;;;;;-142.75;100.00;77068.34;4981522;28;20327;-65
2023/01/07 05:09:22;;;;;;;11.30;5.75;;;;;;;-142.75;100.00;77058.50;4985067;28;20444;-66
2023/01/07 05:11:47;;;;;;;11.27;5.72;;;;;;;-142.75;100.00;77060.47;4966551;28;20578;-66
2023/01/07 05:14:13;;;;;;;13.73;5.90;;;;;;;-142.75;100.00;77066.38;4984484;28;20350;-66
2023/01/07 05:16:38;;;;;;;12.48;6.10;;;;;;;-142.75;100.00;77066.38;4985234;28;20343;-65
2023/01/07 05:19:04;;;;;;;12.93;5.93;;;;;;;-142.75;100.00;77066.38;4966260;28;20114;-65
2023/01/07 05:21:29;;;;;;;10.18;5.80;;;;;;;-142.75;100.00;77066.38;4986221;28;20275;-66
2023/01/07 05:23:55;;;;;;;13.35;5.18;;;;;;;-142.75;100.00;77052.59;4985322;28;20339;-65
2023/01/07 05:26:20;;;;;;;12.40;6.30;;;;;;;-142.75;100.00;77052.59;4984600;28;20087;-65
2023/01/07 05:28:46;;;;;;;10.82;5.18;;;;;;;-142.75;100.00;77054.56;4984768;28;20450;-66
2023/01/07 05:31:12;;;;;;;14.15;6.15;;;;;;;-142.75;100.00;77034.88;4984230;28;20348;-65
2023/01/07 05:33:37;;;;;;;9.23;5.03;;;;;;;-142.75;100.00;77042.75;4984708;28;20327;-65
2023/01/07 05:36:03;;;;;;;12.65;6.10;;;;;;;-142.75;100.00;77038.81;4984937;28;20031;-65
2023/01/07 05:38:29;;;;;;;15.05;5.43;;;;;;;-142.75;100.00;77046.69;4984249;28;20323;-65
2023/01/07 05:40:56;;;;;;;16.45;6.03;;;;;;;-142.75;100.00;77038.81;4986438;28;20114;-66
2023/01/07 05:43:22;;;;;;;10.38;5.25;;;;;;;-142.75;100.00;77042.75;4984132;28;20812;-66
2023/01/07 05:45:47;;;;;;;;;;;;;;;-142.75;100.00;77034.88;4984699;28;20037;-66
2023/01/07 05:48:13;;;;;;;10.23;4.68;;;;;;;-142.75;100.00;77040.78;4984867;28;20217;-66
2023/01/07 05:50:39;;;;;;;;;;;;;;;-142.75;100.00;77025.03;4965955;28;20029;-66
2023/01/07 05:53:04;;;;;;;10.77;5.22;;;;;;;-142.75;100.00;77034.88;4965538;28;20219;-65
2023/01/07 05:55:30;;;;;;;12.60;5.03;;;;;;;-142.75;100.00;77034.88;4984245;28;20437;-65
2023/01/07 05:57:55;;;;;;;10.70;5.03;;;;;;;-142.75;100.00;77050.63;4984955;28;20470;-67
2023/01/07 06:00:21;;;;;;;11.35;4.75;;;;;;;-142.75;100.00;77040.78;4986296;28;20267;-66
2023/01/07 06:02:46;;;;;;;8.38;4.35;;;;;;;-142.75;100.00;77038.81;4983951;28;20378;-67
2023/01/07 06:05:12;;;;;;;8.23;4.82;;;;;;;-142.75;100.00;77050.63;4984466;28;20359;-66
2023/01/07 06:07:38;;;;;;;10.98;4.18;;;;;;;-142.75;100.00;77034.88;4986024;28;20346;-66
2023/01/07 06:10:04;;;;;;;11.00;4.57;;;;;;;-142.75;100.00;77030.94;4984716;28;20265;-66
2023/01/07 06:12:29;;;;;;;12.38;4.40;;;;;;;-142.75;100.00;77040.78;4984196;28;20033;-66
2023/01/07 06:17:40;;;;;;;10.65;3.40;;;;;;;-142.75;100.00;77028.97;5042493;28;20048;-66
2023/01/07 06:20:05;;;;;;;11.15;3.88;;;;;;;-142.75;100.00;77038.81;5042319;28;20127;-67
2023/01/07 06:22:31;;;;;;;7.40;3.80;;;;;;;-142.75;100.00;77042.75;5043099;28;20348;-66
2023/01/07 06:24:57;;;;;;;5.30;2.85;;;;;;;-142.75;100.00;77027.00;5025067;28;20096;-67
2023/01/07 06:27:22;;;;;;;7.30;3.50;;;;;;;-142.75;100.00;77030.94;5024047;28;20325;-66
2023/01/07 06:29:48;;;;;;;7.50;3.17;;;;;;;-142.75;100.00;77042.75;5022787;28;20376;-67
2023/01/07 06:32:13;;;;;;;6.30;3.00;;;;;;;-142.75;100.00;77023.06;5023132;28;20278;-67
2023/01/07 06:34:39;;;;;;;7.60;3.45;;;;;;;-142.75;100.00;77019.13;5022851;28;20472;-68
2023/01/07 06:37:05;;;;;;;5.55;2.45;;;;;;;-142.75;100.00;77015.19;5004384;28;20314;-69
2023/01/07 06:39:30;;;;;;;7.65;2.50;;;;;;;-142.75;100.00;77027.00;5023258;28;20352;-67
2023/01/07 06:41:56;;;;;;;7.63;2.30;;;;;;;-142.75;100.00;77023.06;5004479;28;20311;-68
2023/01/07 06:44:21;;;;;;;6.88;2.65;;;;;;;-142.75;100.00;77032.91;5004489;28;20240;-69
2023/01/07 06:46:46;;;;;;;5.55;2.38;;;;;;;-142.75;100.00;77023.06;5022747;28;20451;-68
2023/01/07 06:49:12;;;;;;;3.95;1.83;;;;;;;-142.75;100.00;77028.97;5004374;28;20407;-68
2023/01/07 06:51:37;;;;;;;4.22;1.83;;;;;;;-142.75;100.00;77019.13;5023011;28;20290;-68
2023/01/07 06:54:03;;;;;;;4.03;2.15;;;;;;;-142.75;100.00;77025.03;5022945;28;20082;-68
2023/01/07 06:56:29;;;;;;;5.25;2.30;;;;;;;-142.75;100.00;77015.19;5022494;28;20329;-67
2023/01/07 06:58:54;;;;;;;7.50;2.10;;;;;;;-142.75;100.00;77011.25;5022442;28;20027;-68
2023/01/07 07:01:20;;;;;;;5.85;2.33;;;;;;;-142.75;100.00;77007.31;5023042;28;20303;-68
2023/01/07 07:03:45;;;;;;;4.22;1.80;;;;;;;-142.75;100.00;77003.38;5022474;28;20341;-68
2023/01/07 07:06:11;;;;;;;6.75;2.17;;;;;;;-142.75;100.00;76993.53;5003961;28;20445;-68
2023/01/07 07:08:36;;;;;;;7.57;1.50;;;;;;;-142.75;100.00;76999.44;5022470;28;20430;-67
2023/01/07 07:11:02;;;;;;;3.95;1.58;;;;;;;-142.75;100.00;77015.19;5022217;28;20310;-69
2023/01/07 07:13:27;;;;;;;4.57;1.52;;;;;;;-142.75;100.00;77001.41;5022320;28;20360;-69
2023/01/07 07:15:53;;;;;;;2.75;1.30;;;;;;;-142.75;100.00;77007.31;5003695;28;20353;-67
2023/01/07 07:18:19;;;;;;;;;;;;;;;-142.75;100.00;76997.47;5022688;28;20333;-68
2023/01/07 07:20:45;;;;;;;3.88;1.40;;;;;;;-142.75;100.00;76995.50;5022412;28;20237;-69
2023/01/07 07:23:11;;;;;;;5.13;1.70;;;;;;;-142.75;100.00;77003.38;5003481;28;20020;-67
2023/01/07 07:25:36;;;;;;;4.25;1.35;;;;;;;-142.75;100.00;76995.50;5022179;28;20329;-67
2023/01/07 07:28:02;;;;;;;3.75;1.45;;;;;;;-142.75;100.00;77027.00;5021564;28;20028;-67
2023/01/07 07:30:28;;;;;;;3.05;1.23;;;;;;;-142.75;100.00;76999.44;5021638;28;20189;-68
2023/01/07 07:32:53;;;;;;;5.18;1.58;;;;;;;-142.75;100.00;76999.44;5021649;28;20131;-67
2023/01/07 07:35:19;;;;;;;5.03;1.42;;;;;;;-142.75;100.00;76999.44;5021784;28;20376;-68
2023/01/07 07:37:44;;;;;;;3.78;1.23;;;;;;;-142.75;100.00;77003.38;5021876;28;20421;-67
2023/01/07 07:40:10;;;;;;;3.28;1.15;;;;;;;-142.75;100.00;76993.53;5004103;28;20050;-68
2023/01/07 07:42:36;;;;;;;;;;;;;;;-142.75;100.00;77003.38;5003826;28;20324;-68
2023/01/07 07:45:02;;;;;;;6.13;1.60;;;;;;;-142.75;100.00;77007.31;5003829;28;19908;-64
2023/01/07 07:47:28;;;;;;;3.28;1.33;;;;;;;-142.75;100.00;77009.28;5002883;28;20134;-67
2023/01/07 07:49:53;;;;;;;3.65;1.40;;;;;;;-142.75;100.00;76999.44;5003324;28;20330;-67
2023/01/07 07:52:19;;;;;;;5.18;1.30;;;;;;;-142.75;100.00;76995.50;5021600;28;20322;-67
2023/01/07 07:54:44;;;;;;;3.88;1.17;;;;;;;-142.75;100.00;76987.63;5003200;28;20456;-66
2023/01/07 07:57:10;;;;;;;2.50;0.93;;;;;;;-142.75;100.00;76983.69;5021499;28;20303;-67
2023/01/07 07:59:35;;;;;;;5.57;1.30;;;;;;;-142.75;100.00;76985.66;5021868;28;20393;-67
2023/01/07 08:02:01;;;;;;;3.05;1.02;;;;;;;-142.75;100.00;76987.63;5021510;28;20503;-67
2023/01/07 08:04:32;;;;;;;;;;;;;;;-142.75;100.00;76975.81;5023440;28;20419;-67
2023/01/07 08:06:59;;;;;;;3.53;1.20;;;;;;;-142.75;100.00;76977.78;5021712;28;19908;-67
2023/01/07 08:09:25;;;;;;;3.40;1.35;;;;;;;-142.75;100.00;76977.78;5003238;28;20024;-67
2023/01/07 08:11:50;;;;;;;2.67;1.10;;;;;;;-142.75;100.00;77001.41;5003275;28;20387;-68
2023/01/07 08:14:16;;;;;;;3.00;1.45;;;;;;;-142.75;100.00;76983.69;5021890;28;20332;-67
2023/01/07 08:16:41;;;;;;;1.75;0.95;;;;;;;-142.75;100.00;76989.59;5021442;28;20454;-68
2023/01/07 08:19:07;;;;;;;2.38;0.93;;;;;;;-142.75;100.00;76983.69;5002893;28;20322;-68
2023/01/07 08:21:32;;;;;;;1.55;0.90;;;;;;;-142.75;100.00;76997.47;5021212;28;20024;-69
2023/01/07 08:23:58;;;;;;;;;;;;;;;-142.75;100.00;76985.66;5003986;28;20036;-67
2023/01/07 08:26:23;;;;;;;2.67;1.35;;;;;;;-142.75;100.00;76989.59;5021944;28;19912;-67
2023/01/07 08:28:49;;;;;;;2.00;1.00;;;;;;;-142.75;100.00;76981.72;5002988;28;20050;-68
2023/01/07 08:31:14;;;;;;;3.40;1.30;;;;;;;-142.75;100.00;76991.56;5003194;28;20258;-67
2023/01/07 08:33:40;;;;;;;2.28;1.00;;;;;;;-142.75;100.00;76995.50;5023847;28;20376;-68
2023/01/07 08:36:08;;;;;;;3.17;0.80;;;;;;;-142.75;100.00;77005.34;5002646;28;20339;-69
2023/01/07 08:38:33;;;;;;;4.65;1.02;;;;;;;-142.75;100.00;76989.59;5023313;28;20028;-67
2023/01/07 08:40:59;;;;;;;2.45;1.00;;;;;;;-142.75;100.00;76981.72;5020937;28;20281;-69
2023/01/07 08:43:25;;;;;;;3.00;1.15;;;;;;;-142.75;100.00;76993.53;5023165;28;20324;-67
2023/01/07 08:45:51;;;;;;;2.50;1.20;;;;;;;-142.75;100.00;76981.72;5024991;28;20341;-67
2023/01/07 08:48:18;;;;;;;2.63;0.82;;;;;;;-142.75;100.00;76987.63;5024858;28;20024;-66
2023/01/07 08:50:48;;;;;;;;;;;;;;;-142.75;100.00;76973.84;5025282;28;20024;-66
2023/01/07 08:53:13;;;;;;;2.25;0.98;;;;;;;-142.75;100.00;76983.69;5006392;28;19938;-66
2023/01/07 08:55:39;;;;;;;1.80;0.90;;;;;;;-142.75;100.00;76979.75;5024841;28;20361;-68
2023/01/07 08:58:04;;;;;;;3.00;1.48;;;;;;;-142.75;100.00;76969.91;5004565;28;20361;-67
2023/01/07 09:00:29;;;;;;;1.48;0.60;;;;;;;-142.75;100.00;76989.59;5051578;28;20012;-66
2023/01/07 09:02:55;;;;;;;2.58;0.93;;;;;;;-142.75;100.00;76965.97;5082065;28;20028;-65
2023/01/07 09:05:20;;;;;;;2.60;0.93;;;;;;;-142.75;100.00;76985.66;5080855;28;20024;-67
2023/01/07 09:07:50;;;;;;;3.25;0.85;;;;;;;-142.75;100.00;76962.03;5067541;28;20764;-67
2023/01/07 09:10:15;;;;;;;3.45;0.70;;;;;;;-142.75;100.00;76977.78;5024470;28;20043;-66
2023/01/07 09:12:41;;;;;;;2.03;1.00;;;;;;;-142.75;100.00;76967.94;5024346;28;20131;-67
2023/01/07 09:15:06;;;;;;;;;;;;;;;-142.75;100.00;76981.72;5024610;28;20317;-67
2023/01/07 09:17:32;;;;;;;4.10;0.90;;;;;;;-142.75;100.00;76967.94;5006016;28;20086;-66
2023/01/07 09:20:01;;;;;;;6.72;1.13;;;;;;;-142.75;100.00;76952.19;5006044;28;20016;-66
2023/01/07 09:22:26;;;;;;;1.98;1.02;;;;;;;-142.75;100.00;76954.16;5024263;28;20024;-68
2023/01/07 09:24:52;;;;;;;5.00;1.10;;;;;;;-142.75;100.00;76938.41;5024618;28;20471;-68
2023/01/07 09:27:17;;;;;;;1.63;0.93;;;;;;;-142.75;100.00;76946.28;5024005;28;20391;-68
2023/01/07 09:29:43;;;;;;;2.92;1.10;;;;;;;-142.75;100.00;76940.38;5024627;28;20395;-66
2023/01/07 09:32:09;;;;;;;2.67;1.38;;;;;;;-142.75;100.00;76930.53;5024094;28;20408;-67
2023/01/07 09:34:34;;;;;;;2.83;1.13;;;;;;;-142.75;100.00;76936.44;5026586;28;20326;-67
2023/01/07 09:37:00;;;;;;;5.30;1.02;;;;;;;-142.75;100.00;76952.19;5023961;28;20024;-68
2023/01/07 09:39:26;;;;;;;2.25;0.88;;;;;;;-142.75;100.00;76940.38;5024116;28;20333;-68
2023/01/07 09:42:03;;;;;;;;;;;;;;;-142.75;100.00;76922.66;5006613;28;20376;-70
2023/01/07 09:44:44;;;;;;;1.65;0.80;;;;;;;-142.75;100.00;76918.72;5024753;28;19908;-71
2023/01/07 09:47:12;;;;;;;3.45;0.93;;;;;;;-142.75;100.00;76920.69;5006800;28;20035;-71
2023/01/07 09:49:38;;;;;;;2.60;1.02;;;;;;;-142.75;100.00;76904.94;5006185;28;20586;-69
2023/01/07 09:52:27;;;;;;;1.98;0.73;;;;;;;-142.75;100.00;76904.94;5023815;28;20633;-71
2023/01/07 09:55:02;;;;;;;2.05;0.70;;;;;;;-142.75;100.00;76893.13;4994030;28;20582;-71
2023/01/07 09:57:27;;;;;;;3.67;0.80;;;;;;;-142.75;100.00;76897.06;5024399;28;20032;-70
2023/01/07 09:59:54;;;;;;;3.42;0.70;;;;;;;-142.75;100.00;76881.31;5025600;28;20302;-68
2023/01/07 10:02:38;;;;;;;;;;;;;;;-142.75;100.00;76873.44;5006342;28;20024;-68
2023/01/07 10:05:22;;;;;;;1.38;0.68;;;;;;;-142.75;100.00;76865.56;5024332;28;19939;-69
2023/01/07 10:08:00;;;;;;;1.52;0.68;;;;;;;-142.75;100.00;76849.81;4994944;28;20564;-70
2023/01/07 10:10:37;;;;;;;2.45;0.57;;;;;;;-142.75;100.00;76806.50;5000719;28;20102;-68
2023/01/07 10:13:21;;;;;;;2.08;0.70;;;;;;;-142.75;100.00;76810.44;5005408;28;20032;-68
2023/01/07 10:16:27;;;;;;;1.60;0.65;;;;;;;-142.75;100.00;76737.63;5023355;28;20574;-68
2023/01/07 10:19:16;;;;;;;2.28;0.50;;;;;;;-142.75;100.00;76680.53;5022753;28;20553;-68
2023/01/07 10:21:51;;;;;;;1.38;0.60;;;;;;;-142.75;100.00;76649.03;5004098;28;20664;-69
2023/01/07 10:24:31;;;;;;;3.08;0.77;;;;;;;-142.75;100.00;76658.88;5016665;28;20101;-69
2023/01/07 10:27:02;;;;;;;2.38;0.60;;;;;;;-142.75;100.00;76668.72;5024011;28;20020;-68
2023/01/07 10:29:34;;;;;;;1.38;0.60;;;;;;;-142.75;100.00;76714.00;5005052;28;20093;-69
2023/01/07 10:32:10;;;;;;;2.55;0.68;;;;;;;-142.75;100.00;76698.25;5019640;28;20155;-71
2023/01/07 10:34:45;;;;;;;1.40;0.60;;;;;;;-142.75;100.00;76666.75;5004822;28;20024;-69
2023/01/07 10:37:25;;;;;;;3.53;0.70;;;;;;;-142.75;100.00;76629.34;5010298;28;20024;-70
2023/01/07 10:40:26;;;;;;;2.88;0.85;;;;;;;-142.75;100.00;76605.72;5024834;28;20097;-71
2023/01/07 10:43:10;;;;;;;1.38;0.63;;;;;;;-142.75;100.00;76611.63;5005843;28;20142;-71
2023/01/07 10:45:42;;;;;;;1.75;0.80;;;;;;;-142.75;100.00;76578.16;5005619;28;20135;-68
2023/01/07 10:48:46;;;;;;;2.13;0.70;;;;;;;-142.75;100.00;76607.69;5023254;28;20502;-68
2023/01/07 10:51:48;;;;;;;2.38;0.68;;;;;;;-142.75;100.00;76601.78;5011331;28;20088;-71
2023/01/07 10:54:36;;;;;;;3.50;0.85;;;;;;;-142.75;100.00;76605.72;5023343;28;20046;-67
2023/01/07 10:57:15;;;;;;;1.60;0.75;;;;;;;-142.75;100.00;76546.66;5038955;28;20020;-68
2023/01/07 10:59:48;;;;;;;3.08;0.80;;;;;;;-142.75;100.00;76527.00;5004373;28;20906;-69
2023/01/07 11:02:17;;;;;;;1.30;0.65;;;;;;;-142.75;100.00;76554.53;5022827;28;20023;-68
2023/01/07 11:04:43;;;;;;;3.42;0.82;;;;;;;-142.75;100.00;76578.16;5022514;28;20115;-69
2023/01/07 11:07:45;;;;;;;1.70;0.80;;;;;;;-142.75;100.00;76605.72;5022092;28;20387;-72
2023/01/07 11:10:16;;;;;;;1.83;0.60;;;;;;;-142.75;100.00;76643.13;5009479;28;20553;-70
2023/01/07 11:12:48;;;;;;;2.15;1.10;;;;;;;-142.75;100.00;76641.16;5002253;28;20150;-67
2023/01/07 11:15:17;;;;;;;4.15;0.80;;;;;;;-142.75;100.00;76623.44;5003866;28;20579;-67
2023/01/07 11:17:52;;;;;;;2.28;0.90;;;;;;;-142.75;100.00;76601.78;5022108;28;20595;-69
2023/01/07 11:20:44;;;;;;;1.75;0.93;;;;;;;-142.75;100.00;76623.44;5018291;28;20020;-67
2023/01/07 11:23:25;;;;;;;2.65;0.80;;;;;;;-142.75;100.00;76593.91;5006644;28;20051;-68
2023/01/07 11:25:51;;;;;;;2.30;0.95;;;;;;;-142.75;100.00;76599.81;5021920;28;20028;-68
2023/01/07 11:28:19;;;;;;;5.22;1.02;;;;;;;-142.75;100.00;76623.44;5003853;28;20633;-68